Time;durP1;ratioP1;P1;durP2;ratioP2;P2;SDS_P1;SDS_P2;PMS_P1;PMS_P2;Temp;Humidity;BMP_temperature;BMP_pressure;BME280_temperature;BME280_humidity;BME280_pressure;Samples;Min_cycle;Max_cycle;Signal;HPM_P1;HPM_P2
2022/01/07 00:00:19;;;;;;;19.70;5.70;;;;;;;-2.26;68.80;99267.57;106052;1274;97824;-70
2022/01/07 00:03:06;;;;;;;20.00;6.00;;;;;;;-2.23;68.64;99267.01;106085;1274;97849;-71
2022/01/07 00:05:35;;;;;;;17.20;5.50;;;;;;;-2.21;68.79;99273.58;106167;1274;111353;-70
2022/01/07 00:08:03;;;;;;;15.00;5.30;;;;;;;-2.20;68.56;99273.21;106112;1274;97950;-69
2022/01/07 00:10:31;;;;;;;14.90;4.90;;;;;;;-2.18;68.83;99278.91;106123;1274;107358;-70
2022/01/07 00:12:59;;;;;;;14.90;4.70;;;;;;;-2.15;68.88;99280.42;106076;1274;98565;-70
2022/01/07 00:15:29;;;;;;;18.00;5.60;;;;;;;-2.12;68.60;99281.60;106196;1273;97900;-72
2022/01/07 00:17:58;;;;;;;14.80;4.90;;;;;;;-2.10;68.87;99281.38;106111;1274;110169;-71
2022/01/07 00:20:28;;;;;;;14.40;5.10;;;;;;;-2.09;68.91;99283.45;106133;1274;96255;-70
2022/01/07 00:22:56;;;;;;;16.70;5.50;;;;;;;-2.06;68.61;99291.40;106119;1273;108842;-68
2022/01/07 00:25:24;;;;;;;15.00;4.60;;;;;;;-2.04;68.63;99291.89;106068;1271;97953;-71
2022/01/07 00:27:53;;;;;;;13.20;4.50;;;;;;;-2.02;69.07;99296.16;106130;1273;95263;-71
2022/01/07 00:30:21;;;;;;;15.20;4.70;;;;;;;-2.00;68.61;99298.94;106181;1273;111491;-70
2022/01/07 00:32:52;;;;;;;16.50;5.40;;;;;;;-2.00;68.75;99303.63;106134;1273;97863;-70
2022/01/07 00:35:21;;;;;;;12.80;4.10;;;;;;;-2.02;68.79;99305.03;106104;1273;107938;-68
2022/01/07 00:37:50;;;;;;;12.50;4.30;;;;;;;-2.02;68.62;99315.12;106100;1274;97986;-70
2022/01/07 00:40:20;;;;;;;14.80;5.00;;;;;;;-2.02;68.77;99318.79;106132;1273;98111;-69
2022/01/07 00:42:50;;;;;;;12.10;5.10;;;;;;;-2.04;68.74;99317.95;105880;1274;111866;-68
2022/01/07 00:45:23;;;;;;;16.40;4.80;;;;;;;-2.03;68.59;99325.23;106078;1273;97940;-70
2022/01/07 00:47:53;;;;;;;8.20;3.90;;;;;;;-2.02;68.50;99324.52;106035;1274;107417;-70
2022/01/07 00:50:22;;;;;;;12.90;3.70;;;;;;;-2.03;68.35;99326.27;106102;1274;97947;-71
2022/01/07 00:52:50;;;;;;;12.10;3.80;;;;;;;-2.04;68.54;99325.77;106208;1273;96377;-71
2022/01/07 00:55:18;;;;;;;9.30;3.90;;;;;;;-2.04;68.41;99329.42;106114;1274;111198;-69
2022/01/07 00:57:48;;;;;;;11.10;3.70;;;;;;;-2.04;68.38;99334.10;106108;1273;97822;-69
2022/01/07 01:00:19;;;;;;;13.50;4.00;;;;;;;-2.06;68.50;99337.46;106119;1272;105878;-67
2022/01/07 01:02:48;;;;;;;9.90;3.30;;;;;;;-2.11;68.23;99340.98;106061;1273;97839;-70
2022/01/07 01:05:17;;;;;;;11.00;3.60;;;;;;;-2.13;67.99;99346.60;106105;1274;95237;-70
2022/01/07 01:07:45;;;;;;;8.20;3.40;;;;;;;-2.17;68.02;99349.60;106043;1274;111381;-71
2022/01/07 01:10:15;;;;;;;7.40;2.80;;;;;;;-2.21;68.18;99358.00;106135;1274;97906;-71
2022/01/07 01:12:45;;;;;;;10.10;3.20;;;;;;;-2.23;68.20;99357.16;106077;1273;107736;-69
2022/01/07 01:15:20;;;;;;;8.40;2.70;;;;;;;-2.26;67.99;99358.46;106170;1274;95258;-69
2022/01/07 01:17:53;;;;;;;10.40;2.70;;;;;;;-2.31;68.29;99354.18;106140;1272;97921;-68
2022/01/07 01:20:21;;;;;;;9.80;3.60;;;;;;;-2.36;67.94;99351.64;106081;1273;111466;-73
2022/01/07 01:22:50;;;;;;;10.00;3.30;;;;;;;-2.39;68.24;99352.21;106152;1273;97910;-70
2022/01/07 01:25:18;;;;;;;8.30;2.80;;;;;;;-2.44;68.18;99350.89;106105;1274;107830;-70
2022/01/07 01:27:46;;;;;;;10.40;3.10;;;;;;;-2.48;68.15;99356.02;106062;1274;97992;-69
2022/01/07 01:30:19;;;;;;;11.00;3.80;;;;;;;-2.51;68.30;99369.59;106096;1273;97944;-69
2022/01/07 01:32:50;;;;;;;7.90;2.90;;;;;;;-2.52;68.27;99371.34;106224;1274;111565;-68
2022/01/07 01:35:18;;;;;;;12.50;4.30;;;;;;;-2.54;68.36;99374.32;106158;1274;95174;-71
2022/01/07 01:37:49;;;;;;;13.00;4.40;;;;;;;-2.56;68.37;99376.77;106126;1274;107813;-70
2022/01/07 01:40:19;;;;;;;11.80;3.90;;;;;;;-2.57;68.45;99379.73;106106;1273;97956;-69
2022/01/07 01:42:52;;;;;;;10.10;3.20;;;;;;;-2.59;68.21;99375.59;106094;1273;97892;-71
2022/01/07 01:45:22;;;;;;;8.10;2.70;;;;;;;-2.62;68.08;99378.23;106100;1274;111625;-71
2022/01/07 01:47:51;;;;;;;7.90;3.10;;;;;;;-2.62;68.15;99380.16;106149;1274;97942;-70
2022/01/07 01:50:21;;;;;;;9.20;4.10;;;;;;;-2.64;68.00;99378.28;106124;1274;107722;-71
2022/01/07 01:52:53;;;;;;;8.80;3.50;;;;;;;-2.66;68.16;99377.09;106118;1274;97860;-70
2022/01/07 01:55:25;;;;;;;12.40;3.60;;;;;;;-2.68;67.92;99381.11;106107;1273;97820;-70
2022/01/07 01:57:54;;;;;;;11.60;3.80;;;;;;;-2.70;68.13;99383.92;106055;1274;111989;-70
2022/01/07 02:00:25;;;;;;;11.00;3.10;;;;;;;-2.72;67.96;99389.33;106026;1274;97975;-68
2022/01/07 02:02:53;;;;;;;10.70;3.40;;;;;;;-2.75;68.13;99390.92;105994;1274;107693;-69
2022/01/07 02:05:22;;;;;;;9.70;3.50;;;;;;;-2.77;67.98;99401.37;105918;1274;97857;-68
2022/01/07 02:07:51;;;;;;;10.90;3.30;;;;;;;-2.78;68.15;99402.60;106010;1274;97842;-69
2022/01/07 02:10:20;;;;;;;11.90;3.60;;;;;;;-2.78;68.18;99401.90;106169;1274;111609;-69
2022/01/07 02:12:48;;;;;;;9.20;3.20;;;;;;;-2.79;68.05;99401.39;106168;1274;97692;-69
2022/01/07 02:15:18;;;;;;;10.50;3.70;;;;;;;-2.82;67.94;99402.98;106134;1274;108326;-69
2022/01/07 02:17:49;;;;;;;7.00;2.80;;;;;;;-2.86;67.98;99408.07;106108;1274;97861;-69
2022/01/07 02:20:20;;;;;;;12.70;3.60;;;;;;;-2.90;67.75;99409.34;106126;1274;96378;-69
2022/01/07 02:22:48;;;;;;;9.80;3.20;;;;;;;-2.93;67.68;99408.69;106136;1274;111942;-68
2022/01/07 02:25:16;;;;;;;10.60;3.30;;;;;;;-2.96;67.79;99409.41;106076;1273;97946;-68
2022/01/07 02:27:44;;;;;;;10.10;3.00;;;;;;;-2.98;67.84;99408.39;106140;1274;107762;-68
2022/01/07 02:30:17;;;;;;;12.40;3.10;;;;;;;-3.01;67.81;99409.29;106085;1274;97817;-68
2022/01/07 02:32:47;;;;;;;10.40;3.00;;;;;;;-3.02;67.74;99414.33;106091;1274;97863;-69
2022/01/07 02:35:17;;;;;;;8.00;2.90;;;;;;;-3.02;67.80;99419.03;106097;1273;111791;-70
2022/01/07 02:37:46;;;;;;;8.00;3.20;;;;;;;-3.05;67.61;99422.88;106119;1274;98830;-70
2022/01/07 02:40:15;;;;;;;11.60;3.20;;;;;;;-3.09;67.63;99421.70;106121;1274;108314;-71
2022/01/07 02:42:43;;;;;;;7.40;2.70;;;;;;;-3.11;67.55;99420.01;106122;1274;97879;-70
2022/01/07 02:45:13;;;;;;;13.10;4.00;;;;;;;-3.10;67.59;99424.67;106206;1274;97930;-71
2022/01/07 02:50:21;;;;;;;13.50;4.10;;;;;;;-3.15;67.75;99423.85;106187;1274;97876;-67
2022/01/07 02:52:50;;;;;;;12.20;4.40;;;;;;;-3.18;67.70;99422.85;106238;1274;108629;-69
2022/01/07 02:55:21;;;;;;;11.20;3.40;;;;;;;-3.22;67.52;99423.41;106231;1274;97874;-70
2022/01/07 02:57:50;;;;;;;10.00;3.50;;;;;;;-3.23;67.59;99421.16;106114;1274;97886;-69
2022/01/07 03:00:20;;;;;;;11.80;3.20;;;;;;;-3.24;67.63;99425.16;106095;1274;111512;-69
2022/01/07 03:02:49;;;;;;;11.90;3.60;;;;;;;-3.27;67.36;99422.77;106065;1273;97975;-69
2022/01/07 03:05:19;;;;;;;9.10;3.60;;;;;;;-3.32;67.29;99424.03;106144;1272;109016;-70
2022/01/07 03:07:49;;;;;;;12.00;3.20;;;;;;;-3.35;67.47;99425.27;106235;1274;98588;-67
2022/01/07 03:10:22;;;;;;;11.80;3.70;;;;;;;-3.36;67.62;99420.43;106229;1274;97812;-70
2022/01/07 03:12:50;;;;;;;8.30;3.80;;;;;;;-3.37;67.69;99417.84;106144;1272;111108;-70
2022/01/07 03:15:17;;;;;;;11.30;3.10;;;;;;;-3.39;67.61;99417.52;106136;1273;97951;-73
2022/01/07 03:17:45;;;;;;;10.20;3.30;;;;;;;-3.43;67.57;99414.77;106066;1274;107643;-70
2022/01/07 03:20:17;;;;;;;11.70;4.10;;;;;;;-3.45;67.60;99411.49;106097;1272;97321;-70
2022/01/07 03:22:48;;;;;;;13.30;3.80;;;;;;;-3.46;67.54;99413.95;106108;1274;98036;-71
2022/01/07 03:25:17;;;;;;;13.40;4.50;;;;;;;-3.48;67.74;99420.21;106130;1274;110104;-70
2022/01/07 03:27:46;;;;;;;10.20;3.60;;;;;;;-3.47;67.48;99420.70;106074;1273;95534;-69
2022/01/07 03:30:17;;;;;;;12.90;3.50;;;;;;;-3.47;67.65;99417.77;106003;1273;136029;-71
2022/01/07 03:32:45;;;;;;;8.40;3.50;;;;;;;-3.49;67.49;99415.20;106136;1273;95585;-70
2022/01/07 03:35:16;;;;;;;11.00;3.40;;;;;;;-3.51;67.45;99416.08;106092;1274;97872;-70
2022/01/07 03:37:45;;;;;;;14.60;3.60;;;;;;;-3.51;67.51;99411.73;106169;1274;112694;-71
2022/01/07 03:40:13;;;;;;;12.50;3.70;;;;;;;-3.50;67.57;99414.52;106259;1274;96985;-67
2022/01/07 03:42:42;;;;;;;10.30;3.50;;;;;;;-3.51;67.63;99417.98;106146;1274;107784;-71
2022/01/07 03:45:11;;;;;;;15.20;4.30;;;;;;;-3.49;67.58;99419.71;106186;1274;97975;-70
2022/01/07 03:47:39;;;;;;;12.90;3.90;;;;;;;-3.49;67.70;99423.86;106230;1274;95248;-74
2022/01/07 03:50:11;;;;;;;17.50;4.70;;;;;;;-3.49;67.54;99429.94;106245;1274;111516;-70
2022/01/07 03:52:40;;;;;;;14.50;4.50;;;;;;;-3.48;67.64;99425.77;106108;1272;95377;-70
2022/01/07 03:55:13;;;;;;;15.10;4.30;;;;;;;-3.47;67.49;99426.96;106118;1274;107730;-69
2022/01/07 03:57:42;;;;;;;17.00;4.90;;;;;;;-3.45;67.69;99427.10;106056;1274;98410;-68
2022/01/07 04:00:14;;;;;;;14.00;4.80;;;;;;;-3.43;67.50;99430.38;106010;1274;97917;-70
2022/01/07 04:02:44;;;;;;;12.90;4.30;;;;;;;-3.42;67.73;99432.12;106085;1272;111296;-68
2022/01/07 04:05:15;;;;;;;13.60;4.70;;;;;;;-3.43;67.64;99440.09;106120;1274;95267;-68
2022/01/07 04:07:43;;;;;;;14.20;4.20;;;;;;;-3.45;67.58;99436.12;106087;1274;105662;-70
2022/01/07 04:10:11;;;;;;;11.90;4.30;;;;;;;-3.45;67.57;99436.64;106084;1274;95365;-69
2022/01/07 04:12:40;;;;;;;14.30;4.20;;;;;;;-3.47;67.62;99438.39;106084;1274;97809;-69
2022/01/07 04:15:09;;;;;;;12.30;3.90;;;;;;;-3.51;67.38;99442.09;106107;1274;111599;-70
2022/01/07 04:17:43;;;;;;;15.50;4.50;;;;;;;-3.56;67.69;99445.07;106110;1274;97908;-69
2022/01/07 04:20:14;;;;;;;13.70;4.20;;;;;;;-3.59;67.44;99448.92;106069;1274;107466;-69
2022/01/07 04:22:43;;;;;;;10.70;3.80;;;;;;;-3.63;67.46;99449.47;106025;1274;95310;-69
2022/01/07 04:25:17;;;;;;;17.00;4.60;;;;;;;-3.72;67.16;99449.90;106099;1274;97969;-69
2022/01/07 04:27:47;;;;;;;17.20;5.00;;;;;;;-3.87;67.10;99453.13;106051;1274;111375;-70
2022/01/07 04:30:17;;;;;;;13.90;4.90;;;;;;;-4.01;67.15;99461.38;106068;1274;95451;-70
2022/01/07 04:32:44;;;;;;;15.00;5.50;;;;;;;-4.11;67.04;99459.89;106108;1274;107709;-69
2022/01/07 04:35:15;;;;;;;20.00;5.70;;;;;;;-4.15;67.17;99464.07;106036;1273;97843;-69
2022/01/07 04:37:43;;;;;;;14.70;5.40;;;;;;;-4.19;67.05;99462.86;106045;1271;97850;-70
2022/01/07 04:40:14;;;;;;;14.50;4.90;;;;;;;-4.18;67.15;99465.98;106013;1271;111798;-69
2022/01/07 04:42:42;;;;;;;17.50;5.70;;;;;;;-4.16;67.30;99467.89;106010;1271;97871;-70
2022/01/07 04:45:11;;;;;;;18.30;6.10;;;;;;;-4.12;67.21;99464.23;106034;1271;106537;-69
2022/01/07 04:47:40;;;;;;;18.90;6.00;;;;;;;-4.08;67.27;99466.61;106090;1271;98431;-69
2022/01/07 04:50:12;;;;;;;19.70;7.60;;;;;;;-4.04;67.36;99466.40;106039;1271;97939;-70
2022/01/07 04:52:44;;;;;;;17.30;6.10;;;;;;;-4.01;67.31;99470.72;106033;1271;111333;-69
2022/01/07 04:55:24;;;;;;;19.30;6.40;;;;;;;-4.00;67.39;99472.98;106034;1271;97976;-71
2022/01/07 04:57:53;;;;;;;18.30;5.90;;;;;;;-3.99;67.34;99481.29;106062;1271;106879;-71
2022/01/07 05:00:23;;;;;;;21.00;6.80;;;;;;;-3.97;67.39;99485.42;105980;1274;97986;-70
2022/01/07 05:02:51;;;;;;;18.70;6.90;;;;;;;-3.95;67.45;99490.45;106062;1271;97982;-70
2022/01/07 05:05:19;;;;;;;24.00;7.80;;;;;;;-3.93;67.28;99489.04;106011;1271;111890;-70
2022/01/07 05:07:47;;;;;;;17.70;6.80;;;;;;;-3.92;67.40;99495.10;106032;1271;97966;-70
2022/01/07 05:10:16;;;;;;;17.70;6.80;;;;;;;-3.91;67.46;99488.69;106026;1271;107914;-68
2022/01/07 05:12:45;;;;;;;21.60;6.90;;;;;;;-3.91;67.42;99485.39;106011;1271;99023;-70
2022/01/07 05:15:15;;;;;;;18.80;6.90;;;;;;;-3.90;67.42;99486.08;106077;1272;95280;-70
2022/01/07 05:17:44;;;;;;;24.80;6.80;;;;;;;-3.88;67.40;99481.73;106045;1271;111348;-66
2022/01/07 05:20:14;;;;;;;22.40;7.10;;;;;;;-3.86;67.44;99484.83;106077;1274;97950;-67
2022/01/07 05:22:44;;;;;;;20.40;6.80;;;;;;;-3.85;67.31;99488.30;106079;1271;108215;-68
2022/01/07 05:25:13;;;;;;;21.20;7.30;;;;;;;-3.84;67.38;99492.79;106048;1271;97938;-70
2022/01/07 05:27:41;;;;;;;22.60;7.50;;;;;;;-3.86;67.38;99494.88;106091;1271;97944;-70
2022/01/07 05:30:11;;;;;;;24.60;8.50;;;;;;;-3.89;67.31;99495.08;106073;1271;112440;-68
2022/01/07 05:32:40;;;;;;;16.80;5.80;;;;;;;-3.91;67.25;99497.00;106041;1274;97746;-71
2022/01/07 05:35:09;;;;;;;23.40;6.80;;;;;;;-3.91;67.24;99498.04;106051;1272;108453;-69
2022/01/07 05:37:37;;;;;;;19.80;6.80;;;;;;;-3.92;67.34;99502.04;106129;1274;97868;-70
2022/01/07 05:40:06;;;;;;;22.00;7.00;;;;;;;-3.92;67.37;99504.11;106158;1274;97898;-71
2022/01/07 05:42:34;;;;;;;21.20;6.80;;;;;;;-3.93;67.32;99506.02;106078;1271;111349;-69
2022/01/07 05:45:02;;;;;;;19.20;6.90;;;;;;;-3.93;67.29;99512.09;106050;1271;96327;-70
2022/01/07 05:47:32;;;;;;;21.20;6.90;;;;;;;-3.94;67.32;99515.39;106032;1271;108131;-70
2022/01/07 05:50:00;;;;;;;19.20;6.30;;;;;;;-3.96;67.43;99514.02;106017;1271;97933;-70
2022/01/07 05:52:28;;;;;;;21.40;7.30;;;;;;;-3.95;67.41;99514.70;106002;1271;97877;-69
2022/01/07 05:54:56;;;;;;;22.10;6.60;;;;;;;-3.95;67.32;99516.77;106032;1271;110385;-72
2022/01/07 05:57:23;;;;;;;19.90;6.50;;;;;;;-3.95;67.36;99515.05;106129;1271;97847;-70
2022/01/07 05:59:51;;;;;;;22.40;7.50;;;;;;;-3.96;67.35;99512.28;106125;1274;107511;-70
2022/01/07 06:02:21;;;;;;;22.30;7.70;;;;;;;-3.96;67.38;99512.63;106048;1274;97748;-71
2022/01/07 06:04:50;;;;;;;19.30;6.20;;;;;;;-3.95;67.33;99512.61;106133;1274;97894;-71
2022/01/07 06:07:18;;;;;;;21.00;7.30;;;;;;;-3.94;67.33;99516.77;106199;1274;112063;-73
2022/01/07 06:09:46;;;;;;;20.20;6.20;;;;;;;-3.93;67.45;99511.23;106224;1274;96981;-71
2022/01/07 06:12:13;;;;;;;22.60;6.50;;;;;;;-3.93;67.51;99508.80;106105;1274;105685;-70
2022/01/07 06:14:41;;;;;;;21.40;7.50;;;;;;;-3.91;67.17;99508.79;106159;1274;95307;-70
2022/01/07 06:17:12;;;;;;;20.10;6.80;;;;;;;-3.89;67.52;99512.08;106181;1274;97858;-71
2022/01/07 06:19:40;;;;;;;20.60;6.90;;;;;;;-3.88;67.46;99508.59;106201;1274;111407;-70
2022/01/07 06:22:10;;;;;;;21.70;7.10;;;;;;;-3.86;67.52;99511.00;106210;1274;98662;-73
2022/01/07 06:24:38;;;;;;;24.40;9.00;;;;;;;-3.88;67.46;99510.66;106165;1274;107731;-71
2022/01/07 06:27:06;;;;;;;26.00;8.70;;;;;;;-3.90;67.28;99508.43;106142;1274;97950;-71
2022/01/07 06:29:34;;;;;;;21.60;8.10;;;;;;;-3.92;67.34;99507.05;106104;1274;97949;-69
2022/01/07 06:32:04;;;;;;;25.90;8.80;;;;;;;-3.91;67.40;99507.57;106000;1274;111895;-70
2022/01/07 06:34:35;;;;;;;24.30;8.20;;;;;;;-3.90;67.41;99510.16;106027;1273;97844;-69
2022/01/07 06:37:05;;;;;;;24.20;8.70;;;;;;;-3.88;67.56;99510.14;106175;1274;108349;-71
2022/01/07 06:39:34;;;;;;;25.30;8.60;;;;;;;-3.85;67.70;99507.52;106103;1274;95914;-71
2022/01/07 06:42:06;;;;;;;24.20;9.10;;;;;;;-3.83;67.66;99505.60;106113;1274;97865;-68
2022/01/07 06:44:35;;;;;;;23.10;9.00;;;;;;;-3.81;67.35;99511.48;106112;1274;111359;-70
2022/01/07 06:47:06;;;;;;;25.30;8.20;;;;;;;-3.80;67.61;99508.52;106198;1274;95412;-70
2022/01/07 06:49:33;;;;;;;23.90;8.70;;;;;;;-3.81;67.63;99506.29;106113;1274;107545;-69
2022/01/07 06:52:04;;;;;;;23.20;8.70;;;;;;;-3.82;67.59;99505.41;106108;1274;97937;-70
2022/01/07 06:54:32;;;;;;;25.00;9.20;;;;;;;-3.83;67.57;99508.55;106130;1274;98563;-70
2022/01/07 06:57:00;;;;;;;23.90;8.80;;;;;;;-3.82;67.50;99508.02;106179;1274;111206;-66
2022/01/07 06:59:32;;;;;;;23.80;8.10;;;;;;;-3.81;67.50;99509.23;106052;1274;95615;-69
2022/01/07 07:02:00;;;;;;;22.30;8.20;;;;;;;-3.80;67.36;99510.09;106053;1274;107338;-69
2022/01/07 07:04:29;;;;;;;27.00;8.50;;;;;;;-3.79;67.53;99515.29;106146;1274;97875;-70
2022/01/07 07:06:58;;;;;;;24.20;9.50;;;;;;;-3.80;67.37;99515.98;106214;1274;97866;-70
2022/01/07 07:09:28;;;;;;;26.30;9.60;;;;;;;-3.78;67.44;99515.63;106084;1274;111409;-70
2022/01/07 07:11:56;;;;;;;27.00;10.10;;;;;;;-3.76;67.64;99517.00;105987;1274;97966;-69
2022/01/07 07:14:24;;;;;;;24.00;9.30;;;;;;;-3.72;67.68;99514.20;106024;1274;107730;-70
2022/01/07 07:16:51;;;;;;;25.70;10.30;;;;;;;-3.70;67.51;99520.27;106109;1274;97889;-67
2022/01/07 07:19:21;;;;;;;25.30;10.50;;;;;;;-3.72;67.60;99518.02;106193;1272;95270;-69
2022/01/07 07:21:53;;;;;;;26.80;9.60;;;;;;;-3.69;67.72;99517.66;106127;1274;112106;-66
2022/01/07 07:24:21;;;;;;;22.90;8.80;;;;;;;-3.66;67.54;99517.79;106079;1274;97973;-65
2022/01/07 07:26:49;;;;;;;28.40;10.20;;;;;;;-3.63;67.59;99522.61;106127;1274;108350;-68
2022/01/07 07:29:17;;;;;;;25.70;9.80;;;;;;;-3.59;67.63;99528.31;106190;1274;98338;-70
2022/01/07 07:31:55;;;;;;;24.50;9.50;;;;;;;-3.55;67.51;99527.59;106203;1274;98242;-69
2022/01/07 07:37:13;;;;;;;28.80;10.00;;;;;;;-3.49;67.70;99519.39;106080;1274;97706;-69
2022/01/07 07:39:41;;;;;;;28.10;9.80;;;;;;;-3.45;67.55;99515.20;106046;1274;107797;-68
2022/01/07 07:42:10;;;;;;;24.70;8.70;;;;;;;-3.41;67.61;99511.87;106178;1274;97839;-68
2022/01/07 07:44:38;;;;;;;25.10;10.10;;;;;;;-3.37;67.72;99507.52;106099;1274;98091;-66
2022/01/07 07:47:11;;;;;;;21.90;8.80;;;;;;;-3.36;67.69;99507.49;106158;1273;110726;-67
2022/01/07 07:49:38;;;;;;;25.30;8.90;;;;;;;-3.34;67.55;99507.98;106075;1274;97979;-65
2022/01/07 07:52:14;;;;;;;24.10;8.40;;;;;;;-3.30;67.53;99506.92;106053;1274;108252;-66
2022/01/07 07:54:42;;;;;;;29.10;8.40;;;;;;;-3.24;67.68;99507.38;106094;1274;97957;-66
2022/01/07 07:57:10;;;;;;;35.00;14.10;;;;;;;-3.19;67.69;99506.81;106138;1274;95379;-67
2022/01/07 07:59:38;;;;;;;36.50;13.40;;;;;;;-3.21;67.69;99508.40;106136;1274;114189;-67
2022/01/07 08:02:14;;;;;;;34.70;15.20;;;;;;;-3.22;67.63;99508.23;106170;1274;97954;-69
2022/01/07 08:04:42;;;;;;;47.60;19.40;;;;;;;-3.25;67.49;99504.45;106181;1273;107678;-67
2022/01/07 08:07:16;;;;;;;41.60;17.30;;;;;;;-3.32;67.71;99503.46;106095;1274;97975;-67
2022/01/07 08:09:45;;;;;;;38.00;15.40;;;;;;;-3.29;67.76;99500.67;106162;1274;97854;-67
2022/01/07 08:12:20;;;;;;;41.50;15.40;;;;;;;-3.23;67.84;99500.95;106096;1274;112432;-66
2022/01/07 08:17:36;;;;;;;33.10;11.60;;;;;;;-3.07;67.80;99491.10;106109;1273;107641;-69
2022/01/07 08:20:07;;;;;;;25.90;9.30;;;;;;;-3.00;67.98;99492.23;106041;1274;97862;-67
2022/01/07 08:22:36;;;;;;;26.80;10.10;;;;;;;-2.91;68.20;99490.75;106077;1274;97884;-66
2022/01/07 08:25:07;;;;;;;24.50;8.40;;;;;;;-2.83;68.10;99491.35;106059;1274;112092;-66
2022/01/07 08:27:35;;;;;;;25.20;9.10;;;;;;;-2.75;67.98;99490.39;106078;1274;97971;-67
2022/01/07 08:30:15;;;;;;;23.70;8.30;;;;;;;-2.67;68.03;99491.35;106012;1274;107253;-66
2022/01/07 08:35:38;;;;;;;24.60;8.10;;;;;;;-2.59;68.05;99497.31;106013;1274;97971;-66
2022/01/07 08:38:06;;;;;;;24.80;8.50;;;;;;;-2.53;68.14;99497.95;106070;1274;110962;-66
2022/01/07 08:40:37;;;;;;;27.10;10.40;;;;;;;-2.48;68.23;99497.02;106124;1274;97869;-67
2022/01/07 08:43:05;;;;;;;24.70;8.00;;;;;;;-2.41;67.97;99497.27;106023;1274;108090;-67
2022/01/07 08:45:37;;;;;;;24.70;8.40;;;;;;;-2.35;67.84;99489.38;106042;1274;97901;-69
2022/01/07 08:48:05;;;;;;;28.80;8.50;;;;;;;-2.30;68.18;99491.23;106151;1274;95270;-66
2022/01/07 08:50:33;;;;;;;25.50;8.10;;;;;;;-2.20;68.26;99493.70;106075;1274;111997;-68
2022/01/07 08:53:01;;;;;;;23.70;8.90;;;;;;;-2.06;68.39;99493.67;106122;1274;97999;-68
2022/01/07 08:55:30;;;;;;;26.80;8.70;;;;;;;-1.87;68.13;99500.35;106213;1274;108408;-67
2022/01/07 08:57:59;;;;;;;29.50;10.40;;;;;;;-1.64;68.32;99501.05;106048;1274;97907;-67
2022/01/07 09:00:30;;;;;;;27.60;9.30;;;;;;;-1.38;68.08;99500.81;106045;1274;97958;-65
2022/01/07 09:03:00;;;;;;;25.90;7.90;;;;;;;-1.13;68.22;99503.69;106056;1274;111919;-67
2022/01/07 09:05:30;;;;;;;27.70;8.60;;;;;;;-0.74;67.79;99509.92;106054;1273;98297;-66
2022/01/07 09:07:59;;;;;;;22.90;8.60;;;;;;;-0.38;67.71;99505.73;106032;1274;108494;-66
2022/01/07 09:10:27;;;;;;;25.80;8.20;;;;;;;-0.14;68.11;99511.67;106288;1273;97982;-66
2022/01/07 09:12:55;;;;;;;26.10;9.10;;;;;;;0.12;67.64;99514.94;106055;1273;97873;-65
2022/01/07 09:15:23;;;;;;;28.60;10.20;;;;;;;0.30;67.98;99518.36;106058;1274;111049;-65
2022/01/07 09:17:51;;;;;;;23.70;9.40;;;;;;;0.60;68.22;99518.70;106195;1274;96307;-64
2022/01/07 09:20:21;;;;;;;25.20;8.10;;;;;;;1.03;68.14;99522.67;106196;1272;108243;-65
2022/01/07 09:22:50;;;;;;;22.20;7.60;;;;;;;1.51;67.77;99522.95;106201;1274;97956;-66
2022/01/07 09:25:18;;;;;;;25.90;7.50;;;;;;;2.05;68.38;99515.80;106150;1274;98026;-68
2022/01/07 09:27:46;;;;;;;20.60;6.70;;;;;;;2.58;67.89;99513.45;106041;1271;111757;-67
2022/01/07 09:30:15;;;;;;;19.10;6.40;;;;;;;3.05;68.21;99511.52;106708;1271;96307;-67
2022/01/07 09:32:43;;;;;;;20.20;7.00;;;;;;;3.42;68.23;99508.83;105978;1274;108338;-65
2022/01/07 09:35:11;;;;;;;17.60;6.50;;;;;;;3.65;68.26;99506.77;106025;1274;97929;-66
2022/01/07 09:37:40;;;;;;;19.00;6.90;;;;;;;3.79;68.23;99502.74;106003;1274;98004;-66
2022/01/07 09:40:11;;;;;;;21.00;5.90;;;;;;;3.80;67.73;99499.56;105993;1274;112108;-64
2022/01/07 09:42:54;;;;;;;20.60;7.10;;;;;;;3.62;67.50;99498.45;106086;1274;98058;-65
2022/01/07 09:45:24;;;;;;;17.50;6.40;;;;;;;3.49;67.56;99494.89;106079;1274;108429;-67
2022/01/07 09:47:55;;;;;;;16.40;5.70;;;;;;;3.37;67.50;99497.79;106100;1274;95350;-68
2022/01/07 09:50:25;;;;;;;17.50;6.20;;;;;;;3.39;67.57;99488.24;106106;1272;97870;-67
2022/01/07 09:52:54;;;;;;;17.30;5.70;;;;;;;3.39;67.28;99487.36;106090;1272;111517;-65
2022/01/07 09:55:24;;;;;;;21.50;8.00;;;;;;;3.43;67.73;99484.77;106146;1274;96306;-65
2022/01/07 09:57:52;;;;;;;19.10;6.60;;;;;;;3.53;67.73;99487.21;106145;1274;108397;-66
2022/01/07 10:00:20;;;;;;;18.10;6.30;;;;;;;3.61;67.49;99491.31;106128;1274;97853;-67
2022/01/07 10:03:09;;;;;;;18.60;6.70;;;;;;;3.56;66.88;99491.15;106221;1274;97866;-65
2022/01/07 10:05:40;;;;;;;17.60;5.80;;;;;;;3.37;66.12;99482.55;106162;1274;112920;-65
2022/01/07 10:08:21;;;;;;;18.70;6.40;;;;;;;3.15;66.26;99480.02;106063;1274;97966;-65
2022/01/07 10:11:15;;;;;;;18.90;6.20;;;;;;;3.05;66.49;99480.17;106023;1274;108504;-66
2022/01/07 10:13:45;;;;;;;16.80;6.10;;;;;;;3.12;66.79;99481.85;106175;1274;95279;-67
2022/01/07 10:16:15;;;;;;;18.40;5.90;;;;;;;3.26;66.82;99476.27;106210;1273;97941;-66
2022/01/07 10:18:54;;;;;;;19.60;6.10;;;;;;;3.43;66.81;99478.64;106141;1274;111934;-67
2022/01/07 10:21:23;;;;;;;19.10;6.20;;;;;;;3.43;65.75;99475.13;106123;1274;95162;-64
2022/01/07 10:24:01;;;;;;;18.70;5.60;;;;;;;3.41;66.01;99469.77;106128;1274;108403;-67
2022/01/07 10:26:29;;;;;;;18.40;5.50;;;;;;;3.47;66.15;99464.84;106192;1274;98009;-67
2022/01/07 10:28:59;;;;;;;17.40;5.30;;;;;;;3.51;66.26;99462.21;106110;1274;97825;-68
2022/01/07 10:31:26;;;;;;;15.00;5.20;;;;;;;3.59;66.46;99463.15;106187;1274;112031;-68
2022/01/07 10:33:54;;;;;;;18.50;5.60;;;;;;;3.70;66.13;99465.00;106236;1274;97891;-65
2022/01/07 10:36:25;;;;;;;17.30;5.60;;;;;;;3.78;65.94;99465.42;106182;1274;107305;-69
2022/01/07 10:39:02;;;;;;;18.20;6.20;;;;;;;3.82;65.66;99457.73;106140;1274;98671;-70
2022/01/07 10:41:30;;;;;;;17.20;5.50;;;;;;;3.81;65.81;99456.20;106086;1274;97966;-71
2022/01/07 10:44:08;;;;;;;16.60;5.30;;;;;;;3.84;65.71;99455.90;106178;1274;110207;-77
2022/01/07 10:46:37;;;;;;;16.40;5.00;;;;;;;3.87;65.77;99456.30;106084;1274;95825;-70
2022/01/07 10:49:07;;;;;;;15.70;4.90;;;;;;;3.79;65.34;99456.94;106054;1274;108258;-69
2022/01/07 10:51:41;;;;;;;12.20;4.00;;;;;;;3.69;65.40;99456.65;106113;1274;97963;-71
2022/01/07 10:54:17;;;;;;;16.90;4.70;;;;;;;3.67;65.12;99459.00;106060;1274;97821;-71
2022/01/07 10:56:48;;;;;;;16.10;5.10;;;;;;;3.62;65.03;99453.91;106061;1274;111434;-69
2022/01/07 10:59:22;;;;;;;16.90;4.90;;;;;;;3.59;65.13;99446.52;106113;1274;97867;-71
2022/01/07 11:01:57;;;;;;;14.20;4.70;;;;;;;3.59;64.94;99446.14;106023;1274;107787;-70
2022/01/07 11:04:31;;;;;;;18.20;5.00;;;;;;;3.57;64.34;99444.95;106033;1274;97864;-69
2022/01/07 11:07:00;;;;;;;;;;;;;;;3.49;64.41;99441.08;106113;1274;96374;-70
2022/01/07 11:09:29;;;;;;;19.80;5.80;;;;;;;3.48;64.42;99444.96;106113;1274;113493;-69
2022/01/07 11:12:02;;;;;;;21.00;6.50;;;;;;;3.52;64.30;99446.38;106075;1274;97971;-70
2022/01/07 11:14:35;;;;;;;18.20;6.00;;;;;;;3.48;63.57;99441.30;106203;1272;108203;-69
2022/01/07 11:17:04;;;;;;;;;;;;;;;3.40;63.34;99441.91;106174;1274;97937;-71
2022/01/07 11:19:44;;;;;;;20.00;5.80;;;;;;;3.39;63.18;99440.39;106083;1273;97871;-68
2022/01/07 11:22:14;;;;;;;17.90;5.30;;;;;;;3.40;62.82;99436.31;106094;1274;111440;-69
2022/01/07 11:24:53;;;;;;;13.60;3.90;;;;;;;3.34;62.67;99426.70;106100;1274;97875;-69
2022/01/07 11:27:27;;;;;;;16.20;4.60;;;;;;;3.25;62.38;99422.31;106175;1274;106990;-68
2022/01/07 11:30:07;;;;;;;16.30;4.50;;;;;;;3.25;62.77;99422.33;106157;1274;96369;-68
2022/01/07 11:32:44;;;;;;;25.80;7.20;;;;;;;3.30;62.64;99421.09;106196;1274;97828;-70
2022/01/07 11:35:17;;;;;;;16.70;4.90;;;;;;;3.31;61.40;99421.95;106205;1274;114121;-68
2022/01/07 11:37:59;;;;;;;13.90;4.00;;;;;;;3.11;61.02;99420.71;106156;1274;95338;-68
2022/01/07 11:40:31;;;;;;;14.50;3.30;;;;;;;2.99;62.00;99420.28;106048;1274;107713;-67